sensor_id;sensor_type;location;lat;lon;timestamp;P1;durP1;ratioP1;P2;durP2;ratioP2
3333;SDS011;1679;50.392;8.008;2023-02-15T00:01:29;52.00;;;22.97;;
3333;SDS011;1679;50.392;8.008;2023-02-15T00:03:55;49.33;;;23.00;;
3333;SDS011;1679;50.392;8.008;2023-02-15T00:06:23;64.77;;;23.23;;
3333;SDS011;1679;50.392;8.008;2023-02-15T00:08:49;44.97;;;22.17;;
3333;SDS011;1679;50.392;8.008;2023-02-15T00:11:15;42.73;;;22.07;;
3333;SDS011;1679;50.392;8.008;2023-02-15T00:14:03;55.70;;;22.37;;
3333;SDS011;1679;50.392;8.008;2023-02-15T00:16:30;50.30;;;21.27;;
3333;SDS011;1679;50.392;8.008;2023-02-15T00:18:55;52.93;;;24.50;;
3333;SDS011;1679;50.392;8.008;2023-02-15T00:21:21;48.50;;;22.53;;
3333;SDS011;1679;50.392;8.008;2023-02-15T00:23:46;47.67;;;24.03;;
3333;SDS011;1679;50.392;8.008;2023-02-15T00:26:13;52.27;;;22.30;;
3333;SDS011;1679;50.392;8.008;2023-02-15T00:28:39;47.07;;;22.43;;
3333;SDS011;1679;50.392;8.008;2023-02-15T00:31:09;50.53;;;22.13;;
3333;SDS011;1679;50.392;8.008;2023-02-15T00:33:36;50.93;;;22.10;;
3333;SDS011;1679;50.392;8.008;2023-02-15T00:36:03;50.83;;;21.40;;
3333;SDS011;1679;50.392;8.008;2023-02-15T00:38:30;43.30;;;21.63;;
3333;SDS011;1679;50.392;8.008;2023-02-15T00:40:57;42.87;;;21.60;;
3333;SDS011;1679;50.392;8.008;2023-02-15T00:43:24;44.20;;;21.30;;
3333;SDS011;1679;50.392;8.008;2023-02-15T00:45:50;49.90;;;22.10;;
3333;SDS011;1679;50.392;8.008;2023-02-15T00:48:16;46.40;;;23.10;;
3333;SDS011;1679;50.392;8.008;2023-02-15T00:50:46;47.50;;;21.67;;
3333;SDS011;1679;50.392;8.008;2023-02-15T00:53:15;44.53;;;21.20;;
3333;SDS011;1679;50.392;8.008;2023-02-15T00:55:41;44.77;;;22.43;;
3333;SDS011;1679;50.392;8.008;2023-02-15T00:58:07;42.30;;;21.93;;
3333;SDS011;1679;50.392;8.008;2023-02-15T01:00:34;127.80;;;23.10;;
3333;SDS011;1679;50.392;8.008;2023-02-15T01:03:00;37.27;;;18.90;;
3333;SDS011;1679;50.392;8.008;2023-02-15T01:05:26;50.23;;;19.73;;
3333;SDS011;1679;50.392;8.008;2023-02-15T01:07:52;50.63;;;20.90;;
3333;SDS011;1679;50.392;8.008;2023-02-15T01:10:17;63.13;;;21.60;;
3333;SDS011;1679;50.392;8.008;2023-02-15T01:12:43;99.00;;;23.00;;
3333;SDS011;1679;50.392;8.008;2023-02-15T01:15:08;88.87;;;22.43;;
3333;SDS011;1679;50.392;8.008;2023-02-15T01:17:34;83.57;;;23.60;;
3333;SDS011;1679;50.392;8.008;2023-02-15T01:20:00;84.63;;;21.67;;
3333;SDS011;1679;50.392;8.008;2023-02-15T01:22:26;39.03;;;20.17;;
3333;SDS011;1679;50.392;8.008;2023-02-15T01:24:52;86.37;;;24.40;;
3333;SDS011;1679;50.392;8.008;2023-02-15T01:27:17;60.43;;;21.13;;
3333;SDS011;1679;50.392;8.008;2023-02-15T01:29:43;73.57;;;20.60;;
3333;SDS011;1679;50.392;8.008;2023-02-15T01:32:09;45.40;;;20.53;;
3333;SDS011;1679;50.392;8.008;2023-02-15T01:34:35;53.10;;;21.33;;
3333;SDS011;1679;50.392;8.008;2023-02-15T01:37:00;83.70;;;24.30;;
3333;SDS011;1679;50.392;8.008;2023-02-15T01:39:26;52.90;;;22.27;;
3333;SDS011;1679;50.392;8.008;2023-02-15T01:41:52;68.53;;;21.80;;
3333;SDS011;1679;50.392;8.008;2023-02-15T01:49:54;50.90;;;21.57;;
3333;SDS011;1679;50.392;8.008;2023-02-15T01:52:26;53.77;;;21.07;;
3333;SDS011;1679;50.392;8.008;2023-02-15T01:54:53;43.83;;;20.73;;
3333;SDS011;1679;50.392;8.008;2023-02-15T01:57:20;46.00;;;20.80;;
3333;SDS011;1679;50.392;8.008;2023-02-15T01:59:49;50.67;;;19.43;;
3333;SDS011;1679;50.392;8.008;2023-02-15T02:02:21;39.57;;;19.87;;
3333;SDS011;1679;50.392;8.008;2023-02-15T02:04:50;62.37;;;21.83;;
3333;SDS011;1679;50.392;8.008;2023-02-15T02:07:22;53.33;;;21.33;;
3333;SDS011;1679;50.392;8.008;2023-02-15T02:09:50;48.73;;;21.03;;
3333;SDS011;1679;50.392;8.008;2023-02-15T02:12:18;41.80;;;19.70;;
3333;SDS011;1679;50.392;8.008;2023-02-15T02:14:44;50.17;;;19.30;;
3333;SDS011;1679;50.392;8.008;2023-02-15T02:20:43;45.40;;;18.77;;
3333;SDS011;1679;50.392;8.008;2023-02-15T02:35:08;40.40;;;19.00;;
3333;SDS011;1679;50.392;8.008;2023-02-15T02:37:47;34.70;;;18.20;;
3333;SDS011;1679;50.392;8.008;2023-02-15T02:46:22;35.50;;;17.40;;
3333;SDS011;1679;50.392;8.008;2023-02-15T02:48:53;42.20;;;18.40;;
3333;SDS011;1679;50.392;8.008;2023-02-15T02:51:19;37.07;;;19.33;;
3333;SDS011;1679;50.392;8.008;2023-02-15T02:53:50;35.73;;;18.60;;
3333;SDS011;1679;50.392;8.008;2023-02-15T02:56:29;45.60;;;18.33;;
3333;SDS011;1679;50.392;8.008;2023-02-15T02:58:59;42.30;;;18.10;;
3333;SDS011;1679;50.392;8.008;2023-02-15T03:02:18;38.87;;;18.90;;
3333;SDS011;1679;50.392;8.008;2023-02-15T03:04:24;36.87;;;18.13;;
3333;SDS011;1679;50.392;8.008;2023-02-15T03:07:02;38.00;;;18.50;;
3333;SDS011;1679;50.392;8.008;2023-02-15T03:09:42;41.97;;;19.20;;
3333;SDS011;1679;50.392;8.008;2023-02-15T03:12:12;40.63;;;18.03;;
3333;SDS011;1679;50.392;8.008;2023-02-15T03:14:48;33.80;;;17.00;;
3333;SDS011;1679;50.392;8.008;2023-02-15T03:17:17;35.47;;;17.13;;
3333;SDS011;1679;50.392;8.008;2023-02-15T03:19:47;30.90;;;17.30;;
3333;SDS011;1679;50.392;8.008;2023-02-15T03:22:20;41.97;;;19.20;;
3333;SDS011;1679;50.392;8.008;2023-02-15T03:24:58;45.13;;;17.47;;
3333;SDS011;1679;50.392;8.008;2023-02-15T03:27:34;36.63;;;17.00;;
3333;SDS011;1679;50.392;8.008;2023-02-15T03:30:03;32.80;;;16.53;;
3333;SDS011;1679;50.392;8.008;2023-02-15T03:32:32;41.40;;;17.13;;
3333;SDS011;1679;50.392;8.008;2023-02-15T03:35:01;34.37;;;16.90;;
3333;SDS011;1679;50.392;8.008;2023-02-15T03:37:40;38.00;;;17.13;;
3333;SDS011;1679;50.392;8.008;2023-02-15T03:40:19;33.63;;;17.37;;
3333;SDS011;1679;50.392;8.008;2023-02-15T03:45:47;31.30;;;15.27;;
3333;SDS011;1679;50.392;8.008;2023-02-15T03:48:24;28.37;;;14.67;;
3333;SDS011;1679;50.392;8.008;2023-02-15T03:50:59;29.70;;;15.63;;
3333;SDS011;1679;50.392;8.008;2023-02-15T03:53:47;32.93;;;15.07;;
3333;SDS011;1679;50.392;8.008;2023-02-15T03:56:14;28.63;;;14.80;;
3333;SDS011;1679;50.392;8.008;2023-02-15T03:58:39;27.70;;;15.03;;
3333;SDS011;1679;50.392;8.008;2023-02-15T04:01:26;29.73;;;15.33;;
3333;SDS011;1679;50.392;8.008;2023-02-15T04:04:19;32.40;;;16.47;;
3333;SDS011;1679;50.392;8.008;2023-02-15T04:06:47;28.67;;;15.40;;
3333;SDS011;1679;50.392;8.008;2023-02-15T04:09:13;31.70;;;15.70;;
3333;SDS011;1679;50.392;8.008;2023-02-15T04:11:57;33.80;;;17.43;;
3333;SDS011;1679;50.392;8.008;2023-02-15T04:14:22;26.73;;;15.53;;
3333;SDS011;1679;50.392;8.008;2023-02-15T04:17:07;28.30;;;14.63;;
3333;SDS011;1679;50.392;8.008;2023-02-15T04:19:34;26.90;;;13.60;;
3333;SDS011;1679;50.392;8.008;2023-02-15T04:22:18;27.03;;;14.57;;
3333;SDS011;1679;50.392;8.008;2023-02-15T04:25:02;24.57;;;13.70;;
3333;SDS011;1679;50.392;8.008;2023-02-15T04:27:35;26.20;;;15.03;;
3333;SDS011;1679;50.392;8.008;2023-02-15T04:30:01;27.00;;;14.07;;
3333;SDS011;1679;50.392;8.008;2023-02-15T04:32:27;29.10;;;14.73;;
3333;SDS011;1679;50.392;8.008;2023-02-15T04:34:52;28.87;;;13.77;;
3333;SDS011;1679;50.392;8.008;2023-02-15T04:37:18;39.33;;;16.40;;
3333;SDS011;1679;50.392;8.008;2023-02-15T04:39:44;24.20;;;13.50;;
3333;SDS011;1679;50.392;8.008;2023-02-15T04:42:09;30.70;;;14.80;;
3333;SDS011;1679;50.392;8.008;2023-02-15T04:44:35;32.20;;;16.90;;
3333;SDS011;1679;50.392;8.008;2023-02-15T04:47:00;33.67;;;15.50;;
3333;SDS011;1679;50.392;8.008;2023-02-15T04:49:26;39.23;;;15.80;;
3333;SDS011;1679;50.392;8.008;2023-02-15T04:51:51;26.97;;;14.73;;
3333;SDS011;1679;50.392;8.008;2023-02-15T04:54:17;35.33;;;15.70;;
3333;SDS011;1679;50.392;8.008;2023-02-15T04:56:42;36.37;;;15.53;;
3333;SDS011;1679;50.392;8.008;2023-02-15T04:59:11;41.70;;;15.90;;
3333;SDS011;1679;50.392;8.008;2023-02-15T05:01:37;32.30;;;16.23;;
3333;SDS011;1679;50.392;8.008;2023-02-15T05:04:03;28.97;;;15.17;;
3333;SDS011;1679;50.392;8.008;2023-02-15T05:06:29;29.90;;;15.77;;
3333;SDS011;1679;50.392;8.008;2023-02-15T05:08:54;30.77;;;15.60;;
3333;SDS011;1679;50.392;8.008;2023-02-15T05:11:20;31.50;;;16.40;;
3333;SDS011;1679;50.392;8.008;2023-02-15T05:13:45;36.90;;;16.77;;
3333;SDS011;1679;50.392;8.008;2023-02-15T05:16:11;40.07;;;18.30;;
3333;SDS011;1679;50.392;8.008;2023-02-15T05:18:36;33.50;;;17.70;;
3333;SDS011;1679;50.392;8.008;2023-02-15T05:21:02;28.10;;;14.70;;
3333;SDS011;1679;50.392;8.008;2023-02-15T05:23:28;34.67;;;15.83;;
3333;SDS011;1679;50.392;8.008;2023-02-15T05:25:54;29.00;;;14.83;;
3333;SDS011;1679;50.392;8.008;2023-02-15T05:28:38;30.20;;;16.00;;
3333;SDS011;1679;50.392;8.008;2023-02-15T05:31:22;29.70;;;15.77;;
3333;SDS011;1679;50.392;8.008;2023-02-15T05:33:47;32.10;;;15.20;;
3333;SDS011;1679;50.392;8.008;2023-02-15T05:36:13;30.07;;;17.30;;
3333;SDS011;1679;50.392;8.008;2023-02-15T05:38:38;31.97;;;16.90;;
3333;SDS011;1679;50.392;8.008;2023-02-15T05:41:04;31.40;;;16.50;;
3333;SDS011;1679;50.392;8.008;2023-02-15T05:43:31;35.10;;;16.60;;
3333;SDS011;1679;50.392;8.008;2023-02-15T05:45:57;34.03;;;15.87;;
3333;SDS011;1679;50.392;8.008;2023-02-15T05:48:23;30.70;;;15.53;;
3333;SDS011;1679;50.392;8.008;2023-02-15T05:51:00;36.07;;;17.10;;
3333;SDS011;1679;50.392;8.008;2023-02-15T05:53:27;35.07;;;16.37;;
3333;SDS011;1679;50.392;8.008;2023-02-15T05:55:54;35.10;;;16.50;;
3333;SDS011;1679;50.392;8.008;2023-02-15T05:58:23;36.07;;;17.60;;
3333;SDS011;1679;50.392;8.008;2023-02-15T06:00:53;34.87;;;17.10;;
3333;SDS011;1679;50.392;8.008;2023-02-15T06:03:19;53.10;;;18.57;;
3333;SDS011;1679;50.392;8.008;2023-02-15T06:05:44;35.93;;;18.47;;
3333;SDS011;1679;50.392;8.008;2023-02-15T06:08:10;49.93;;;16.90;;
3333;SDS011;1679;50.392;8.008;2023-02-15T06:10:35;43.43;;;18.90;;
3333;SDS011;1679;50.392;8.008;2023-02-15T06:13:01;85.03;;;19.60;;
3333;SDS011;1679;50.392;8.008;2023-02-15T06:15:26;58.33;;;16.47;;
3333;SDS011;1679;50.392;8.008;2023-02-15T06:17:52;131.23;;;20.60;;
3333;SDS011;1679;50.392;8.008;2023-02-15T06:20:17;91.10;;;20.27;;
3333;SDS011;1679;50.392;8.008;2023-02-15T06:22:43;40.33;;;17.47;;
3333;SDS011;1679;50.392;8.008;2023-02-15T06:25:09;46.83;;;17.53;;
3333;SDS011;1679;50.392;8.008;2023-02-15T06:27:36;39.87;;;17.00;;
3333;SDS011;1679;50.392;8.008;2023-02-15T06:30:02;36.47;;;17.07;;
3333;SDS011;1679;50.392;8.008;2023-02-15T06:32:30;38.77;;;16.93;;
3333;SDS011;1679;50.392;8.008;2023-02-15T06:34:56;37.30;;;17.17;;
3333;SDS011;1679;50.392;8.008;2023-02-15T06:37:21;40.70;;;17.30;;
3333;SDS011;1679;50.392;8.008;2023-02-15T06:39:48;37.90;;;18.23;;
3333;SDS011;1679;50.392;8.008;2023-02-15T06:42:14;35.40;;;17.27;;
3333;SDS011;1679;50.392;8.008;2023-02-15T06:44:39;36.30;;;17.93;;
3333;SDS011;1679;50.392;8.008;2023-02-15T06:47:05;45.57;;;19.40;;
3333;SDS011;1679;50.392;8.008;2023-02-15T06:49:30;35.13;;;16.93;;
3333;SDS011;1679;50.392;8.008;2023-02-15T06:51:56;33.40;;;17.13;;
3333;SDS011;1679;50.392;8.008;2023-02-15T06:54:21;39.90;;;18.33;;
3333;SDS011;1679;50.392;8.008;2023-02-15T06:56:47;37.57;;;18.27;;
3333;SDS011;1679;50.392;8.008;2023-02-15T06:59:12;35.10;;;17.83;;
3333;SDS011;1679;50.392;8.008;2023-02-15T07:01:38;33.53;;;17.13;;
3333;SDS011;1679;50.392;8.008;2023-02-15T07:04:03;33.20;;;18.67;;
3333;SDS011;1679;50.392;8.008;2023-02-15T07:06:32;35.00;;;16.50;;
3333;SDS011;1679;50.392;8.008;2023-02-15T07:09:00;34.43;;;15.23;;
3333;SDS011;1679;50.392;8.008;2023-02-15T07:11:25;34.40;;;16.67;;
3333;SDS011;1679;50.392;8.008;2023-02-15T07:14:09;25.47;;;14.53;;
3333;SDS011;1679;50.392;8.008;2023-02-15T07:16:35;30.27;;;16.00;;
3333;SDS011;1679;50.392;8.008;2023-02-15T07:19:01;27.60;;;15.23;;
3333;SDS011;1679;50.392;8.008;2023-02-15T07:21:27;28.17;;;14.50;;
3333;SDS011;1679;50.392;8.008;2023-02-15T07:23:55;33.47;;;15.90;;
3333;SDS011;1679;50.392;8.008;2023-02-15T07:26:23;27.67;;;15.40;;
3333;SDS011;1679;50.392;8.008;2023-02-15T07:28:48;30.83;;;15.30;;
3333;SDS011;1679;50.392;8.008;2023-02-15T07:31:15;29.40;;;16.37;;
3333;SDS011;1679;50.392;8.008;2023-02-15T07:33:42;30.53;;;16.37;;
3333;SDS011;1679;50.392;8.008;2023-02-15T07:36:07;27.50;;;14.60;;
3333;SDS011;1679;50.392;8.008;2023-02-15T07:38:37;26.63;;;14.87;;
3333;SDS011;1679;50.392;8.008;2023-02-15T07:41:05;27.90;;;15.70;;
3333;SDS011;1679;50.392;8.008;2023-02-15T07:43:33;31.70;;;15.90;;
3333;SDS011;1679;50.392;8.008;2023-02-15T07:46:02;31.67;;;16.90;;
3333;SDS011;1679;50.392;8.008;2023-02-15T07:48:29;27.90;;;15.60;;
3333;SDS011;1679;50.392;8.008;2023-02-15T07:50:59;30.17;;;16.53;;
3333;SDS011;1679;50.392;8.008;2023-02-15T07:53:25;36.60;;;18.90;;
3333;SDS011;1679;50.392;8.008;2023-02-15T07:55:51;29.73;;;16.33;;
3333;SDS011;1679;50.392;8.008;2023-02-15T07:58:17;27.60;;;14.93;;
3333;SDS011;1679;50.392;8.008;2023-02-15T08:00:43;25.33;;;15.23;;
3333;SDS011;1679;50.392;8.008;2023-02-15T08:03:27;27.27;;;15.80;;
3333;SDS011;1679;50.392;8.008;2023-02-15T08:05:57;26.07;;;14.60;;
3333;SDS011;1679;50.392;8.008;2023-02-15T08:08:24;32.27;;;17.07;;
3333;SDS011;1679;50.392;8.008;2023-02-15T08:11:01;30.30;;;15.60;;
3333;SDS011;1679;50.392;8.008;2023-02-15T08:13:49;31.17;;;16.67;;
3333;SDS011;1679;50.392;8.008;2023-02-15T08:16:26;34.37;;;16.50;;
3333;SDS011;1679;50.392;8.008;2023-02-15T08:22:02;33.00;;;17.20;;
3333;SDS011;1679;50.392;8.008;2023-02-15T08:24:31;26.93;;;14.30;;
3333;SDS011;1679;50.392;8.008;2023-02-15T08:26:58;24.80;;;14.87;;
3333;SDS011;1679;50.392;8.008;2023-02-15T08:29:27;28.70;;;17.00;;
3333;SDS011;1679;50.392;8.008;2023-02-15T08:31:56;27.10;;;15.03;;
3333;SDS011;1679;50.392;8.008;2023-02-15T08:34:31;27.20;;;15.23;;
3333;SDS011;1679;50.392;8.008;2023-02-15T08:37:01;31.97;;;16.47;;
3333;SDS011;1679;50.392;8.008;2023-02-15T08:39:27;28.27;;;15.80;;
3333;SDS011;1679;50.392;8.008;2023-02-15T08:41:54;28.37;;;15.83;;
3333;SDS011;1679;50.392;8.008;2023-02-15T08:44:20;34.10;;;17.97;;
3333;SDS011;1679;50.392;8.008;2023-02-15T08:46:46;34.67;;;18.67;;
3333;SDS011;1679;50.392;8.008;2023-02-15T08:49:15;34.27;;;17.97;;
3333;SDS011;1679;50.392;8.008;2023-02-15T08:51:43;33.67;;;17.40;;
3333;SDS011;1679;50.392;8.008;2023-02-15T08:54:11;30.60;;;16.63;;
3333;SDS011;1679;50.392;8.008;2023-02-15T08:56:41;33.80;;;18.83;;
3333;SDS011;1679;50.392;8.008;2023-02-15T08:59:07;39.77;;;19.17;;
3333;SDS011;1679;50.392;8.008;2023-02-15T09:01:47;33.20;;;17.27;;
3333;SDS011;1679;50.392;8.008;2023-02-15T09:04:13;34.20;;;18.33;;
3333;SDS011;1679;50.392;8.008;2023-02-15T09:06:40;30.70;;;17.10;;
3333;SDS011;1679;50.392;8.008;2023-02-15T09:09:08;28.93;;;17.20;;
3333;SDS011;1679;50.392;8.008;2023-02-15T09:11:35;27.90;;;15.50;;
3333;SDS011;1679;50.392;8.008;2023-02-15T09:14:04;32.80;;;16.60;;
3333;SDS011;1679;50.392;8.008;2023-02-15T09:16:31;41.23;;;21.43;;
3333;SDS011;1679;50.392;8.008;2023-02-15T09:18:59;31.00;;;16.77;;
3333;SDS011;1679;50.392;8.008;2023-02-15T09:21:29;31.57;;;16.30;;
3333;SDS011;1679;50.392;8.008;2023-02-15T09:23:57;31.27;;;15.93;;
3333;SDS011;1679;50.392;8.008;2023-02-15T09:26:24;31.00;;;17.47;;
3333;SDS011;1679;50.392;8.008;2023-02-15T09:28:51;31.77;;;16.43;;
3333;SDS011;1679;50.392;8.008;2023-02-15T09:31:20;29.83;;;16.70;;
3333;SDS011;1679;50.392;8.008;2023-02-15T09:33:48;31.63;;;17.50;;
3333;SDS011;1679;50.392;8.008;2023-02-15T09:36:15;33.13;;;17.40;;
3333;SDS011;1679;50.392;8.008;2023-02-15T09:39:03;26.00;;;16.13;;
3333;SDS011;1679;50.392;8.008;2023-02-15T09:46:59;30.50;;;16.27;;
3333;SDS011;1679;50.392;8.008;2023-02-15T09:55:16;29.90;;;15.80;;
3333;SDS011;1679;50.392;8.008;2023-02-15T10:06:50;28.40;;;15.90;;
3333;SDS011;1679;50.392;8.008;2023-02-15T10:15:07;25.40;;;15.80;;
3333;SDS011;1679;50.392;8.008;2023-02-15T10:20:19;30.30;;;17.13;;
3333;SDS011;1679;50.392;8.008;2023-02-15T10:25:42;25.60;;;15.27;;
3333;SDS011;1679;50.392;8.008;2023-02-15T10:28:20;24.90;;;14.93;;
3333;SDS011;1679;50.392;8.008;2023-02-15T10:31:14;27.40;;;14.90;;
3333;SDS011;1679;50.392;8.008;2023-02-15T10:33:46;30.87;;;15.33;;
3333;SDS011;1679;50.392;8.008;2023-02-15T10:41:42;32.00;;;16.77;;
3333;SDS011;1679;50.392;8.008;2023-02-15T10:44:30;26.43;;;15.37;;
3333;SDS011;1679;50.392;8.008;2023-02-15T10:47:22;28.77;;;16.10;;
3333;SDS011;1679;50.392;8.008;2023-02-15T10:49:59;29.30;;;16.50;;
3333;SDS011;1679;50.392;8.008;2023-02-15T10:52:36;29.40;;;16.07;;
3333;SDS011;1679;50.392;8.008;2023-02-15T10:55:34;30.40;;;16.40;;
3333;SDS011;1679;50.392;8.008;2023-02-15T11:03:41;27.77;;;15.77;;
3333;SDS011;1679;50.392;8.008;2023-02-15T11:06:33;25.87;;;15.87;;
3333;SDS011;1679;50.392;8.008;2023-02-15T11:09:02;25.77;;;14.83;;
3333;SDS011;1679;50.392;8.008;2023-02-15T11:11:31;25.10;;;14.77;;
3333;SDS011;1679;50.392;8.008;2023-02-15T11:14:02;27.43;;;15.57;;
3333;SDS011;1679;50.392;8.008;2023-02-15T11:16:37;26.23;;;14.83;;
3333;SDS011;1679;50.392;8.008;2023-02-15T11:19:23;26.67;;;14.50;;
3333;SDS011;1679;50.392;8.008;2023-02-15T11:21:59;24.77;;;14.80;;
3333;SDS011;1679;50.392;8.008;2023-02-15T11:24:28;26.13;;;15.73;;
3333;SDS011;1679;50.392;8.008;2023-02-15T11:27:03;30.00;;;16.30;;
3333;SDS011;1679;50.392;8.008;2023-02-15T11:29:48;26.60;;;16.30;;
3333;SDS011;1679;50.392;8.008;2023-02-15T11:32:28;31.00;;;17.30;;
3333;SDS011;1679;50.392;8.008;2023-02-15T11:40:32;26.93;;;15.70;;
3333;SDS011;1679;50.392;8.008;2023-02-15T11:43:11;26.63;;;15.37;;
3333;SDS011;1679;50.392;8.008;2023-02-15T11:45:41;25.70;;;14.43;;
3333;SDS011;1679;50.392;8.008;2023-02-15T11:48:10;27.13;;;15.90;;
3333;SDS011;1679;50.392;8.008;2023-02-15T11:50:37;25.97;;;14.50;;
3333;SDS011;1679;50.392;8.008;2023-02-15T11:53:04;27.90;;;16.17;;
3333;SDS011;1679;50.392;8.008;2023-02-15T11:55:38;23.87;;;15.43;;
3333;SDS011;1679;50.392;8.008;2023-02-15T12:06:46;24.83;;;15.63;;
3333;SDS011;1679;50.392;8.008;2023-02-15T12:12:27;24.93;;;15.33;;
3333;SDS011;1679;50.392;8.008;2023-02-15T12:14:53;23.90;;;15.37;;
3333;SDS011;1679;50.392;8.008;2023-02-15T12:17:21;22.63;;;13.70;;
3333;SDS011;1679;50.392;8.008;2023-02-15T12:19:50;24.43;;;14.83;;
3333;SDS011;1679;50.392;8.008;2023-02-15T12:22:19;24.13;;;14.27;;
3333;SDS011;1679;50.392;8.008;2023-02-15T12:24:54;22.83;;;14.60;;
3333;SDS011;1679;50.392;8.008;2023-02-15T12:27:29;25.20;;;15.30;;
3333;SDS011;1679;50.392;8.008;2023-02-15T12:30:07;21.33;;;13.40;;
3333;SDS011;1679;50.392;8.008;2023-02-15T12:35:57;24.73;;;15.20;;
3333;SDS011;1679;50.392;8.008;2023-02-15T12:38:37;25.03;;;15.10;;
3333;SDS011;1679;50.392;8.008;2023-02-15T12:41:04;25.60;;;16.40;;
3333;SDS011;1679;50.392;8.008;2023-02-15T12:43:46;23.43;;;15.07;;
3333;SDS011;1679;50.392;8.008;2023-02-15T12:49:01;18.40;;;13.83;;
3333;SDS011;1679;50.392;8.008;2023-02-15T12:51:43;20.87;;;13.60;;
3333;SDS011;1679;50.392;8.008;2023-02-15T12:54:17;22.23;;;14.53;;
3333;SDS011;1679;50.392;8.008;2023-02-15T12:56:57;22.33;;;14.10;;
3333;SDS011;1679;50.392;8.008;2023-02-15T12:59:24;23.67;;;14.10;;
3333;SDS011;1679;50.392;8.008;2023-02-15T13:01:51;27.33;;;15.60;;
3333;SDS011;1679;50.392;8.008;2023-02-15T13:06:48;22.47;;;14.27;;
3333;SDS011;1679;50.392;8.008;2023-02-15T13:09:20;25.90;;;14.40;;
3333;SDS011;1679;50.392;8.008;2023-02-15T13:14:47;21.23;;;14.33;;
3333;SDS011;1679;50.392;8.008;2023-02-15T13:17:21;22.70;;;14.63;;
3333;SDS011;1679;50.392;8.008;2023-02-15T13:19:54;18.57;;;13.60;;
3333;SDS011;1679;50.392;8.008;2023-02-15T13:22:32;24.73;;;15.57;;
3333;SDS011;1679;50.392;8.008;2023-02-15T13:25:24;20.80;;;13.70;;
3333;SDS011;1679;50.392;8.008;2023-02-15T13:27:54;20.87;;;13.20;;
3333;SDS011;1679;50.392;8.008;2023-02-15T13:30:28;20.87;;;13.70;;
3333;SDS011;1679;50.392;8.008;2023-02-15T13:33:02;20.97;;;14.10;;
3333;SDS011;1679;50.392;8.008;2023-02-15T13:35:46;20.60;;;13.80;;
3333;SDS011;1679;50.392;8.008;2023-02-15T13:41:07;24.63;;;14.73;;
3333;SDS011;1679;50.392;8.008;2023-02-15T13:46:48;20.30;;;13.40;;
3333;SDS011;1679;50.392;8.008;2023-02-15T13:49:26;18.73;;;13.13;;
3333;SDS011;1679;50.392;8.008;2023-02-15T13:54:47;20.80;;;12.70;;
3333;SDS011;1679;50.392;8.008;2023-02-15T14:05:29;24.30;;;15.73;;
3333;SDS011;1679;50.392;8.008;2023-02-15T14:08:08;32.80;;;19.40;;
3333;SDS011;1679;50.392;8.008;2023-02-15T14:10:43;33.03;;;17.60;;
3333;SDS011;1679;50.392;8.008;2023-02-15T14:16:28;26.43;;;16.17;;
3333;SDS011;1679;50.392;8.008;2023-02-15T14:24:54;27.30;;;17.13;;
3333;SDS011;1679;50.392;8.008;2023-02-15T14:27:45;30.00;;;16.70;;
3333;SDS011;1679;50.392;8.008;2023-02-15T14:30:34;34.20;;;19.03;;
3333;SDS011;1679;50.392;8.008;2023-02-15T14:33:07;29.90;;;18.27;;
3333;SDS011;1679;50.392;8.008;2023-02-15T14:35:53;30.73;;;18.80;;
3333;SDS011;1679;50.392;8.008;2023-02-15T14:41:15;29.53;;;17.63;;
3333;SDS011;1679;50.392;8.008;2023-02-15T14:44:00;35.90;;;19.87;;
3333;SDS011;1679;50.392;8.008;2023-02-15T14:49:21;30.33;;;18.67;;
3333;SDS011;1679;50.392;8.008;2023-02-15T14:51:55;30.50;;;17.40;;
3333;SDS011;1679;50.392;8.008;2023-02-15T15:02:42;31.93;;;19.00;;
3333;SDS011;1679;50.392;8.008;2023-02-15T15:05:21;25.93;;;16.90;;
3333;SDS011;1679;50.392;8.008;2023-02-15T15:07:59;29.80;;;18.00;;
3333;SDS011;1679;50.392;8.008;2023-02-15T15:10:43;32.10;;;18.43;;
3333;SDS011;1679;50.392;8.008;2023-02-15T15:13:34;32.50;;;19.37;;
3333;SDS011;1679;50.392;8.008;2023-02-15T15:15:56;27.67;;;18.90;;
3333;SDS011;1679;50.392;8.008;2023-02-15T15:18:43;27.57;;;18.10;;
3333;SDS011;1679;50.392;8.008;2023-02-15T15:21:11;29.43;;;18.53;;
3333;SDS011;1679;50.392;8.008;2023-02-15T15:48:59;30.00;;;18.67;;
3333;SDS011;1679;50.392;8.008;2023-02-15T15:51:31;28.83;;;17.60;;
3333;SDS011;1679;50.392;8.008;2023-02-15T15:53:58;30.60;;;19.33;;
3333;SDS011;1679;50.392;8.008;2023-02-15T15:56:34;33.00;;;19.93;;
3333;SDS011;1679;50.392;8.008;2023-02-15T15:59:02;30.03;;;18.10;;
3333;SDS011;1679;50.392;8.008;2023-02-15T16:01:31;38.63;;;18.90;;
3333;SDS011;1679;50.392;8.008;2023-02-15T16:04:04;27.63;;;19.17;;
3333;SDS011;1679;50.392;8.008;2023-02-15T16:06:33;33.83;;;20.07;;
3333;SDS011;1679;50.392;8.008;2023-02-15T16:09:17;34.93;;;19.30;;
3333;SDS011;1679;50.392;8.008;2023-02-15T16:11:51;35.33;;;23.00;;
3333;SDS011;1679;50.392;8.008;2023-02-15T16:14:37;31.13;;;20.17;;
3333;SDS011;1679;50.392;8.008;2023-02-15T16:17:05;33.10;;;20.60;;
3333;SDS011;1679;50.392;8.008;2023-02-15T16:19:34;36.70;;;21.47;;
3333;SDS011;1679;50.392;8.008;2023-02-15T16:22:03;40.67;;;22.63;;
3333;SDS011;1679;50.392;8.008;2023-02-15T16:24:37;43.47;;;22.93;;
3333;SDS011;1679;50.392;8.008;2023-02-15T16:29:47;34.07;;;21.07;;
3333;SDS011;1679;50.392;8.008;2023-02-15T16:32:20;34.43;;;21.63;;
3333;SDS011;1679;50.392;8.008;2023-02-15T16:37:27;35.80;;;21.03;;
3333;SDS011;1679;50.392;8.008;2023-02-15T16:39:57;35.77;;;21.57;;
3333;SDS011;1679;50.392;8.008;2023-02-15T16:42:23;32.77;;;20.50;;
3333;SDS011;1679;50.392;8.008;2023-02-15T16:44:51;35.00;;;22.13;;
3333;SDS011;1679;50.392;8.008;2023-02-15T16:47:25;38.73;;;21.80;;
3333;SDS011;1679;50.392;8.008;2023-02-15T16:49:54;36.50;;;21.23;;
3333;SDS011;1679;50.392;8.008;2023-02-15T16:52:23;38.27;;;21.20;;
3333;SDS011;1679;50.392;8.008;2023-02-15T16:57:47;45.80;;;23.73;;
3333;SDS011;1679;50.392;8.008;2023-02-15T17:00:24;38.60;;;22.13;;
3333;SDS011;1679;50.392;8.008;2023-02-15T17:03:03;37.77;;;21.13;;
3333;SDS011;1679;50.392;8.008;2023-02-15T17:05:50;41.40;;;25.60;;
3333;SDS011;1679;50.392;8.008;2023-02-15T17:08:31;40.50;;;23.07;;
3333;SDS011;1679;50.392;8.008;2023-02-15T17:11:14;37.70;;;23.73;;
3333;SDS011;1679;50.392;8.008;2023-02-15T17:16:31;44.60;;;25.10;;
3333;SDS011;1679;50.392;8.008;2023-02-15T17:19:15;43.17;;;23.40;;
3333;SDS011;1679;50.392;8.008;2023-02-15T17:21:53;41.60;;;23.30;;
3333;SDS011;1679;50.392;8.008;2023-02-15T17:26:55;47.90;;;24.13;;
3333;SDS011;1679;50.392;8.008;2023-02-15T17:31:54;43.13;;;25.30;;
3333;SDS011;1679;50.392;8.008;2023-02-15T17:34:40;44.80;;;26.23;;
3333;SDS011;1679;50.392;8.008;2023-02-15T17:39:50;46.27;;;24.23;;
3333;SDS011;1679;50.392;8.008;2023-02-15T17:42:16;39.90;;;22.90;;
3333;SDS011;1679;50.392;8.008;2023-02-15T17:44:41;49.60;;;27.50;;
3333;SDS011;1679;50.392;8.008;2023-02-15T17:47:08;46.70;;;24.63;;
3333;SDS011;1679;50.392;8.008;2023-02-15T17:49:39;44.93;;;25.80;;
3333;SDS011;1679;50.392;8.008;2023-02-15T17:52:05;42.80;;;25.30;;
3333;SDS011;1679;50.392;8.008;2023-02-15T17:54:32;46.93;;;26.43;;
3333;SDS011;1679;50.392;8.008;2023-02-15T17:57:16;44.30;;;25.47;;
3333;SDS011;1679;50.392;8.008;2023-02-15T17:59:42;56.00;;;28.20;;
3333;SDS011;1679;50.392;8.008;2023-02-15T18:02:27;49.77;;;27.03;;
3333;SDS011;1679;50.392;8.008;2023-02-15T18:05:17;52.87;;;27.97;;
3333;SDS011;1679;50.392;8.008;2023-02-15T18:08:01;48.40;;;25.50;;
3333;SDS011;1679;50.392;8.008;2023-02-15T18:10:44;47.77;;;26.40;;
3333;SDS011;1679;50.392;8.008;2023-02-15T18:13:29;46.30;;;25.07;;
3333;SDS011;1679;50.392;8.008;2023-02-15T18:15:55;47.70;;;26.47;;
3333;SDS011;1679;50.392;8.008;2023-02-15T18:18:22;47.83;;;26.80;;
3333;SDS011;1679;50.392;8.008;2023-02-15T18:20:48;46.90;;;27.27;;